createdAt,value
2023-02-23T00:01:58.229Z,27.95
2023-02-23T00:04:25.522Z,25.85
2023-02-23T00:06:53.500Z,28.13
2023-02-23T00:09:24.763Z,25.63
2023-02-23T00:11:57.474Z,25.67
2023-02-23T00:14:31.178Z,23.60
2023-02-23T00:17:00.141Z,27.70
2023-02-23T00:19:27.657Z,27.63
2023-02-23T00:21:56.306Z,31.75
2023-02-23T00:24:27.069Z,30.98
2023-02-23T00:26:54.460Z,27.45
2023-02-23T00:29:24.795Z,27.77
2023-02-23T00:31:52.692Z,35.75
2023-02-23T00:34:21.586Z,31.63
2023-02-23T00:36:55.032Z,27.17
2023-02-23T00:39:26.333Z,26.13
2023-02-23T00:41:55.684Z,30.52
2023-02-23T00:44:23.845Z,29.42
2023-02-23T00:46:52.395Z,30.10
2023-02-23T00:49:21.885Z,32.92
2023-02-23T00:51:49.506Z,27.27
2023-02-23T00:54:17.311Z,33.17
2023-02-23T00:56:45.937Z,31.13
2023-02-23T00:59:14.350Z,32.70
2023-02-23T01:01:42.136Z,32.22
2023-02-23T01:04:11.347Z,30.30
2023-02-23T01:06:40.642Z,33.88
2023-02-23T01:09:14.131Z,31.20
2023-02-23T01:11:42.153Z,28.85
2023-02-23T01:14:10.549Z,29.10
2023-02-23T01:16:38.978Z,26.13
2023-02-23T01:19:07.028Z,31.52
2023-02-23T01:21:39.863Z,26.65
2023-02-23T01:24:10.284Z,29.58
2023-02-23T01:26:40.533Z,28.53
2023-02-23T01:29:16.666Z,26.45
2023-02-23T01:31:47.694Z,31.17
2023-02-23T01:34:19.717Z,32.55
2023-02-23T01:36:47.340Z,28.30
2023-02-23T01:39:17.888Z,29.38
2023-02-23T01:41:45.630Z,23.67
2023-02-23T01:44:13.123Z,23.65
2023-02-23T01:46:43.764Z,23.55
2023-02-23T01:49:20.273Z,26.42
2023-02-23T01:51:55.820Z,28.15
2023-02-23T01:54:26.593Z,24.88
2023-02-23T01:56:58.474Z,23.80
2023-02-23T01:59:34.254Z,28.33
2023-02-23T02:02:05.234Z,24.00
2023-02-23T02:04:46.697Z,29.80
2023-02-23T02:07:23.617Z,25.15
2023-02-23T02:10:22.093Z,28.45
2023-02-23T02:12:52.838Z,32.33
2023-02-23T02:15:22.564Z,25.30
2023-02-23T02:18:23.783Z,22.05
2023-02-23T02:21:04.716Z,25.38
2023-02-23T02:23:59.442Z,24.15
2023-02-23T02:26:45.395Z,26.52
2023-02-23T02:29:31.308Z,28.10
2023-02-23T02:32:14.152Z,26.58
2023-02-23T02:34:42.670Z,26.75
2023-02-23T02:37:36.337Z,26.00
2023-02-23T02:40:21.458Z,23.83
2023-02-23T02:43:00.586Z,19.52
2023-02-23T02:45:43.705Z,24.43
2023-02-23T02:48:49.810Z,22.80
2023-02-23T02:51:26.089Z,23.33
2023-02-23T02:54:07.528Z,22.25
2023-02-23T02:56:40.386Z,26.92
2023-02-23T02:59:33.263Z,25.55
2023-02-23T03:02:19.657Z,19.52
2023-02-23T03:05:05.823Z,24.73
2023-02-23T03:08:11.589Z,22.83
2023-02-23T03:11:14.232Z,21.50
2023-02-23T03:14:06.560Z,22.02
2023-02-23T03:17:07.685Z,22.38
2023-02-23T03:20:13.561Z,19.95
2023-02-23T03:23:09.730Z,21.75
2023-02-23T03:26:13.345Z,20.38
2023-02-23T03:29:14.469Z,20.55
2023-02-23T03:32:07.224Z,23.23
2023-02-23T03:35:18.416Z,26.27
2023-02-23T03:38:12.969Z,22.33
2023-02-23T03:41:01.035Z,24.80
2023-02-23T03:43:51.658Z,22.08
2023-02-23T03:46:38.679Z,30.58
2023-02-23T03:49:27.376Z,19.50
2023-02-23T03:52:18.815Z,25.73
2023-02-23T03:55:10.273Z,24.05
2023-02-23T03:57:57.861Z,23.27
2023-02-23T04:00:48.971Z,22.50
2023-02-23T04:03:36.920Z,25.73
2023-02-23T04:06:26.518Z,21.70
2023-02-23T04:09:14.771Z,24.63
2023-02-23T04:12:20.755Z,27.92
2023-02-23T04:15:01.835Z,27.58
2023-02-23T04:17:29.998Z,28.35
2023-02-23T04:19:57.488Z,27.23
2023-02-23T04:22:25.801Z,30.00
2023-02-23T04:24:53.284Z,25.08
2023-02-23T04:27:20.574Z,26.25
2023-02-23T04:29:47.880Z,27.05
2023-02-23T04:32:18.610Z,27.35
2023-02-23T04:34:46.140Z,24.42
2023-02-23T04:37:13.693Z,27.55
2023-02-23T04:39:42.933Z,29.08
2023-02-23T04:42:10.626Z,27.23
2023-02-23T04:44:38.061Z,29.67
2023-02-23T04:47:05.509Z,28.90
2023-02-23T04:49:32.929Z,29.65
2023-02-23T04:52:00.351Z,26.85
2023-02-23T04:54:27.709Z,27.65
2023-02-23T04:56:55.140Z,31.52
2023-02-23T04:59:22.604Z,28.65
2023-02-23T05:01:49.999Z,28.40
2023-02-23T05:04:17.428Z,24.55
2023-02-23T05:06:44.853Z,26.80
2023-02-23T05:09:12.132Z,26.67
2023-02-23T05:11:39.352Z,23.17
2023-02-23T05:14:06.833Z,25.98
2023-02-23T05:16:34.229Z,27.58
2023-02-23T05:19:01.771Z,20.45
2023-02-23T05:21:29.072Z,24.88
2023-02-23T05:23:57.377Z,26.42
2023-02-23T05:26:24.833Z,28.65
2023-02-23T05:28:52.174Z,29.48
2023-02-23T05:31:20.688Z,25.48
2023-02-23T05:33:48.316Z,23.55
2023-02-23T05:36:17.748Z,31.00
2023-02-23T05:38:46.289Z,25.23
2023-02-23T05:41:16.409Z,28.67
2023-02-23T05:46:16.813Z,29.70
2023-02-23T05:48:44.249Z,30.10
2023-02-23T05:51:13.992Z,29.60
2023-02-23T05:53:41.976Z,29.95
2023-02-23T05:56:13.574Z,26.60
2023-02-23T05:58:40.894Z,30.45
2023-02-23T06:01:08.291Z,25.40
2023-02-23T06:03:35.870Z,26.60
2023-02-23T06:06:03.243Z,26.25
2023-02-23T06:08:30.742Z,25.10
2023-02-23T06:10:58.130Z,30.83
2023-02-23T06:13:26.410Z,30.30
2023-02-23T06:15:53.698Z,24.95
2023-02-23T06:18:22.326Z,25.33
2023-02-23T06:20:49.995Z,23.85
2023-02-23T06:23:18.956Z,25.52
2023-02-23T06:25:47.045Z,25.40
2023-02-23T06:28:15.455Z,24.65
2023-02-23T06:30:43.138Z,28.50
2023-02-23T06:33:10.449Z,24.88
2023-02-23T06:35:38.142Z,30.67
2023-02-23T06:38:06.441Z,25.73
2023-02-23T06:40:33.859Z,33.47
2023-02-23T06:43:03.581Z,30.98
2023-02-23T06:45:31.868Z,26.60
2023-02-23T06:47:59.987Z,29.27
2023-02-23T06:50:27.843Z,26.20
2023-02-23T06:52:57.646Z,32.80
2023-02-23T06:55:25.285Z,25.92
2023-02-23T06:57:53.595Z,24.55
2023-02-23T07:00:21.949Z,29.55
2023-02-23T07:02:49.432Z,29.75
2023-02-23T07:05:16.920Z,26.30
2023-02-23T07:07:45.676Z,26.30
2023-02-23T07:10:13.275Z,28.25
2023-02-23T07:12:40.720Z,33.28
2023-02-23T07:15:08.897Z,31.85
2023-02-23T07:17:36.864Z,27.48
2023-02-23T07:20:05.157Z,31.00
2023-02-23T07:22:34.179Z,25.77
2023-02-23T07:25:01.808Z,25.73
2023-02-23T07:27:29.278Z,27.42
2023-02-23T07:29:56.881Z,27.73
2023-02-23T07:32:24.564Z,28.73
2023-02-23T07:34:54.016Z,29.77
2023-02-23T07:37:22.074Z,27.00
2023-02-23T07:39:49.647Z,30.17
2023-02-23T07:42:18.136Z,35.17
2023-02-23T07:44:45.566Z,32.60
2023-02-23T07:47:13.106Z,31.90
2023-02-23T07:49:40.535Z,28.85
2023-02-23T07:52:08.401Z,30.55
2023-02-23T07:54:35.664Z,29.02
2023-02-23T07:57:03.380Z,30.95
2023-02-23T07:59:32.245Z,28.17
2023-02-23T08:01:59.620Z,33.10
2023-02-23T08:04:26.988Z,30.20
2023-02-23T08:06:55.225Z,29.02
2023-02-23T08:09:22.792Z,30.20
2023-02-23T08:11:50.215Z,29.98
2023-02-23T08:14:17.529Z,27.48
2023-02-23T08:16:45.752Z,29.90
2023-02-23T08:19:13.192Z,27.70
2023-02-23T08:21:40.674Z,33.70
2023-02-23T08:24:08.108Z,34.45
2023-02-23T08:26:38.121Z,31.92
2023-02-23T08:31:32.786Z,33.00
2023-02-23T08:34:00.299Z,34.58
2023-02-23T08:36:27.706Z,29.70
2023-02-23T08:38:55.367Z,26.88
2023-02-23T08:41:23.083Z,25.48
2023-02-23T08:43:50.355Z,31.73
2023-02-23T08:46:20.388Z,30.40
2023-02-23T08:51:15.689Z,28.70
2023-02-23T08:53:43.097Z,37.75
2023-02-23T08:56:12.875Z,77.78
2023-02-23T08:58:40.489Z,44.40
2023-02-23T09:01:07.904Z,39.90
2023-02-23T09:03:38.197Z,33.00
2023-02-23T09:06:09.815Z,36.60
2023-02-23T09:08:38.304Z,32.35
2023-02-23T09:11:05.992Z,29.52
2023-02-23T09:13:33.731Z,35.58
2023-02-23T09:16:01.285Z,42.85
2023-02-23T09:18:29.500Z,34.17
2023-02-23T09:20:57.225Z,36.03
2023-02-23T09:23:28.293Z,34.03
2023-02-23T09:25:55.634Z,33.45
2023-02-23T09:28:23.066Z,35.00
2023-02-23T09:30:50.324Z,32.72
2023-02-23T09:33:18.298Z,34.13
2023-02-23T09:35:45.647Z,36.80
2023-02-23T09:38:12.973Z,33.13
2023-02-23T09:40:52.753Z,35.10
2023-02-23T09:43:24.246Z,39.50
2023-02-23T09:46:16.254Z,35.03
2023-02-23T09:48:44.221Z,37.35
2023-02-23T09:51:17.348Z,34.65
2023-02-23T09:53:48.949Z,34.28
2023-02-23T09:56:39.264Z,43.80
2023-02-23T09:59:15.601Z,33.85
2023-02-23T10:01:49.230Z,34.70
2023-02-23T10:04:23.819Z,39.90
2023-02-23T10:06:59.983Z,38.92
2023-02-23T10:09:52.712Z,38.65
2023-02-23T10:12:30.500Z,40.47
2023-02-23T10:15:06.576Z,39.30
2023-02-23T10:18:06.311Z,38.67
2023-02-23T10:20:57.676Z,37.63
2023-02-23T10:23:34.092Z,35.75
2023-02-23T10:26:02.928Z,36.67
2023-02-23T10:28:36.762Z,39.75
2023-02-23T10:31:17.096Z,33.00
2023-02-23T10:33:44.797Z,37.45
2023-02-23T10:36:19.676Z,33.78
2023-02-23T10:38:47.292Z,38.35
2023-02-23T10:41:15.145Z,35.88
2023-02-23T10:43:42.746Z,35.03
2023-02-23T10:46:23.487Z,44.40
2023-02-23T10:48:51.375Z,40.35
2023-02-23T10:51:23.476Z,36.42
2023-02-23T10:53:53.044Z,35.70
2023-02-23T10:56:21.414Z,35.50
2023-02-23T10:59:05.633Z,34.28
2023-02-23T11:02:00.302Z,37.20
2023-02-23T11:04:31.271Z,33.92
2023-02-23T11:07:16.430Z,37.05
2023-02-23T11:09:48.154Z,41.55
2023-02-23T11:12:22.831Z,37.88
2023-02-23T11:14:52.290Z,40.85
2023-02-23T11:17:24.297Z,37.13
2023-02-23T11:19:51.879Z,50.33
2023-02-23T11:22:27.120Z,40.78
2023-02-23T11:24:55.575Z,50.33
2023-02-23T11:27:27.021Z,38.30
2023-02-23T11:29:59.285Z,42.60
2023-02-23T11:32:30.844Z,40.00
2023-02-23T11:35:31.230Z,35.58
2023-02-23T11:37:59.011Z,35.40
2023-02-23T11:40:26.234Z,39.10
2023-02-23T11:43:01.240Z,45.00
2023-02-23T11:45:34.237Z,41.00
2023-02-23T11:48:02.266Z,36.00
2023-02-23T11:50:32.590Z,34.50
2023-02-23T11:53:17.212Z,35.60
2023-02-23T11:55:55.254Z,39.95
2023-02-23T11:58:27.177Z,28.95
2023-02-23T12:01:03.565Z,31.35
2023-02-23T12:03:33.327Z,52.72
2023-02-23T12:06:02.377Z,34.88
2023-02-23T12:08:35.982Z,59.08
2023-02-23T12:11:07.298Z,60.13
2023-02-23T12:13:50.848Z,32.92
2023-02-23T12:16:24.781Z,37.50
2023-02-23T12:19:04.990Z,29.10
2023-02-23T12:24:08.157Z,29.77
2023-02-23T12:26:49.334Z,32.63
2023-02-23T12:29:33.643Z,28.35
2023-02-23T12:32:03.339Z,30.52
2023-02-23T12:34:36.468Z,30.05
2023-02-23T12:37:29.294Z,27.23
2023-02-23T12:40:02.308Z,31.25
2023-02-23T12:42:45.742Z,27.90
2023-02-23T12:45:43.358Z,26.48
2023-02-23T12:48:29.220Z,26.38
2023-02-23T12:51:07.210Z,46.20
2023-02-23T12:53:34.582Z,31.48
2023-02-23T12:56:27.467Z,27.63
2023-02-23T12:59:14.439Z,27.55
2023-02-23T13:02:00.809Z,30.10
2023-02-23T13:05:24.549Z,27.70
2023-02-23T13:08:11.584Z,45.15
2023-02-23T13:10:55.639Z,31.77
2023-02-23T13:13:31.587Z,28.98
2023-02-23T13:16:34.916Z,26.92
2023-02-23T13:19:25.278Z,25.60
2023-02-23T13:22:21.934Z,28.00
2023-02-23T13:24:49.867Z,36.83
2023-02-23T13:27:34.047Z,23.90
2023-02-23T13:30:02.326Z,26.25
2023-02-23T13:32:32.612Z,36.83
2023-02-23T13:35:14.524Z,28.15
2023-02-23T13:37:51.393Z,29.33
2023-02-23T13:40:31.143Z,27.48
2023-02-23T13:43:23.686Z,26.13
2023-02-23T13:46:14.633Z,25.05
2023-02-23T13:49:00.531Z,24.45
2023-02-23T13:51:43.799Z,26.05
2023-02-23T13:54:15.092Z,27.02
2023-02-23T13:56:47.068Z,28.50
2023-02-23T13:59:29.692Z,24.98
2023-02-23T14:01:58.011Z,24.80
2023-02-23T14:04:28.214Z,31.80
2023-02-23T14:07:01.875Z,25.92
2023-02-23T14:09:36.788Z,44.85
2023-02-23T14:12:38.970Z,39.80
2023-02-23T14:15:25.439Z,28.50
2023-02-23T14:18:15.470Z,29.25
2023-02-23T14:21:15.554Z,24.52
2023-02-23T14:24:03.150Z,25.10
2023-02-23T14:26:30.376Z,28.20
2023-02-23T14:29:20.126Z,26.35
2023-02-23T14:32:12.605Z,35.17
2023-02-23T14:35:00.693Z,26.85
2023-02-23T14:37:40.956Z,22.05
2023-02-23T14:40:15.740Z,23.23
2023-02-23T14:42:47.531Z,24.90
2023-02-23T14:45:29.240Z,23.35
2023-02-23T14:48:00.012Z,22.83
2023-02-23T14:50:30.787Z,21.20
2023-02-23T14:52:58.544Z,22.02
2023-02-23T14:55:33.055Z,21.00
2023-02-23T14:58:02.133Z,23.15
2023-02-23T15:00:33.106Z,22.13
2023-02-23T15:03:03.727Z,18.23
2023-02-23T15:05:37.355Z,22.85
2023-02-23T15:08:06.836Z,18.45
2023-02-23T15:10:39.177Z,25.00
2023-02-23T15:13:11.849Z,23.15
2023-02-23T15:15:45.394Z,22.30
2023-02-23T15:18:32.001Z,19.27
2023-02-23T15:20:59.513Z,19.08
2023-02-23T15:23:27.356Z,18.35
2023-02-23T15:25:54.965Z,18.55
2023-02-23T15:28:28.112Z,23.00
2023-02-23T15:31:02.049Z,18.55
2023-02-23T15:33:30.380Z,21.52
2023-02-23T15:36:06.905Z,18.67
2023-02-23T15:38:43.876Z,21.00
2023-02-23T15:41:39.623Z,30.48
2023-02-23T15:44:13.415Z,23.80
2023-02-23T15:46:42.109Z,22.02
2023-02-23T15:49:14.439Z,17.92
2023-02-23T15:51:50.288Z,21.02
2023-02-23T15:54:24.812Z,17.33
2023-02-23T15:56:57.238Z,17.98
2023-02-23T15:59:38.035Z,17.52
2023-02-23T16:02:16.681Z,25.35
2023-02-23T16:04:49.018Z,16.20
2023-02-23T16:07:21.986Z,17.67
2023-02-23T16:09:55.791Z,19.83
2023-02-23T16:12:32.646Z,24.00
2023-02-23T16:15:02.313Z,18.27
2023-02-23T16:17:53.701Z,19.27
2023-02-23T16:20:29.322Z,16.67
2023-02-23T16:22:58.127Z,17.50
2023-02-23T16:25:27.255Z,19.25
2023-02-23T16:28:01.335Z,20.35
2023-02-23T16:30:32.145Z,17.38
2023-02-23T16:33:24.253Z,20.58
2023-02-23T16:36:10.593Z,22.83
2023-02-23T16:38:41.161Z,17.98
2023-02-23T16:41:22.381Z,15.88
2023-02-23T16:43:52.003Z,17.33
2023-02-23T16:46:21.134Z,17.00
2023-02-23T16:48:48.940Z,17.93
2023-02-23T16:51:19.064Z,16.35
2023-02-23T16:53:46.632Z,14.82
2023-02-23T16:56:20.224Z,18.25
2023-02-23T16:58:57.173Z,18.67
2023-02-23T17:01:24.802Z,16.88
2023-02-23T17:03:54.085Z,17.40
2023-02-23T17:06:22.751Z,16.63
2023-02-23T17:08:58.093Z,16.92
2023-02-23T17:11:26.640Z,14.52
2023-02-23T17:13:54.078Z,28.30
2023-02-23T17:16:21.825Z,15.23
2023-02-23T17:18:49.339Z,14.23
2023-02-23T17:21:23.003Z,14.40
2023-02-23T17:23:51.646Z,21.73
2023-02-23T17:26:23.821Z,17.13
2023-02-23T17:28:51.860Z,16.05
2023-02-23T17:31:20.164Z,13.88
2023-02-23T17:33:48.300Z,58.63
2023-02-23T17:36:17.632Z,13.82
2023-02-23T17:38:45.153Z,69.22
2023-02-23T17:41:16.570Z,13.82
2023-02-23T17:43:44.096Z,14.02
2023-02-23T17:46:12.974Z,14.70
2023-02-23T17:48:44.486Z,16.55
2023-02-23T17:51:13.197Z,14.07
2023-02-23T17:53:40.823Z,13.05
2023-02-23T17:56:09.143Z,13.07
2023-02-23T17:58:37.459Z,14.00
2023-02-23T18:01:07.078Z,15.38
2023-02-23T18:03:36.385Z,14.25
2023-02-23T18:06:09.380Z,14.50
2023-02-23T18:08:37.907Z,15.48
2023-02-23T18:11:05.680Z,18.42
2023-02-23T18:13:34.313Z,15.70
2023-02-23T18:16:06.248Z,14.80
2023-02-23T18:18:34.161Z,17.05
2023-02-23T18:21:02.814Z,17.27
2023-02-23T18:23:37.009Z,16.92
2023-02-23T18:26:07.288Z,18.27
2023-02-23T18:28:35.307Z,17.08
2023-02-23T18:31:02.959Z,18.90
2023-02-23T18:33:31.536Z,23.38
2023-02-23T18:35:59.073Z,21.63
2023-02-23T18:38:26.596Z,23.05
2023-02-23T18:40:53.904Z,22.38
2023-02-23T18:43:21.366Z,26.70
2023-02-23T18:45:48.825Z,29.38
2023-02-23T18:48:16.394Z,28.05
2023-02-23T18:50:44.035Z,32.58
2023-02-23T18:53:11.526Z,35.33
2023-02-23T18:55:38.789Z,36.22
2023-02-23T18:58:07.824Z,37.90
2023-02-23T19:00:40.202Z,45.50
2023-02-23T19:03:07.739Z,41.72
2023-02-23T19:05:37.681Z,42.65
2023-02-23T19:08:09.558Z,46.13
2023-02-23T19:10:37.076Z,41.83
2023-02-23T19:13:08.960Z,56.55
2023-02-23T19:15:36.380Z,41.55
2023-02-23T19:18:04.195Z,39.85
2023-02-23T19:20:35.912Z,40.92
2023-02-23T19:23:03.471Z,34.08
2023-02-23T19:25:31.925Z,38.28
2023-02-23T19:28:00.049Z,37.65
2023-02-23T19:30:27.501Z,36.33
2023-02-23T19:32:54.874Z,35.88
2023-02-23T19:35:22.419Z,34.88
2023-02-23T19:37:51.823Z,38.17
2023-02-23T19:40:22.868Z,35.75
2023-02-23T19:42:51.215Z,32.08
2023-02-23T19:45:18.742Z,39.80
2023-02-23T19:47:46.352Z,34.83
2023-02-23T19:50:16.937Z,38.35
2023-02-23T19:52:45.295Z,38.53
2023-02-23T19:55:13.416Z,35.38
2023-02-23T19:57:41.213Z,38.17
2023-02-23T20:00:11.629Z,35.40
2023-02-23T20:02:42.778Z,34.88
2023-02-23T20:05:15.140Z,32.50
2023-02-23T20:07:43.354Z,35.63
2023-02-23T20:10:16.196Z,38.47
2023-02-23T20:12:44.604Z,34.50
2023-02-23T20:15:14.859Z,37.45
2023-02-23T20:17:42.592Z,38.30
2023-02-23T20:20:11.336Z,36.42
2023-02-23T20:22:41.407Z,31.20
2023-02-23T20:27:39.860Z,31.50
2023-02-23T20:30:07.811Z,35.03
2023-02-23T20:32:35.431Z,34.10
2023-02-23T20:35:03.071Z,36.35
2023-02-23T20:37:31.388Z,33.65
2023-02-23T20:39:58.922Z,38.05
2023-02-23T20:42:28.393Z,38.38
2023-02-23T20:44:56.054Z,34.40
2023-02-23T20:47:24.213Z,34.83
2023-02-23T20:49:51.563Z,46.33
2023-02-23T20:52:18.973Z,36.75
2023-02-23T20:54:46.312Z,37.78
2023-02-23T20:57:13.632Z,38.90
2023-02-23T20:59:43.301Z,39.00
2023-02-23T21:02:13.973Z,40.42
2023-02-23T21:04:44.275Z,38.15
2023-02-23T21:07:13.538Z,36.80
2023-02-23T21:09:41.030Z,43.80
2023-02-23T21:12:12.671Z,38.45
2023-02-23T21:14:40.132Z,42.40
2023-02-23T21:20:14.569Z,40.25
2023-02-23T21:22:42.042Z,47.78
2023-02-23T21:25:10.953Z,45.17
2023-02-23T21:27:38.669Z,44.87
2023-02-23T21:30:08.205Z,47.50
2023-02-23T21:32:41.321Z,49.92
2023-02-23T21:35:10.944Z,50.50
2023-02-23T21:37:39.388Z,47.33
2023-02-23T21:40:12.665Z,47.97
2023-02-23T21:42:41.714Z,48.47
2023-02-23T21:45:12.503Z,49.83
2023-02-23T21:47:41.748Z,48.95
2023-02-23T21:50:13.581Z,49.27
2023-02-23T21:52:43.690Z,56.03
2023-02-23T21:55:21.248Z,56.95
2023-02-23T21:57:49.339Z,52.35
2023-02-23T22:00:16.810Z,55.83
2023-02-23T22:02:46.736Z,56.85
2023-02-23T22:05:15.941Z,60.85
2023-02-23T22:07:52.068Z,51.92
2023-02-23T22:10:21.834Z,57.85
2023-02-23T22:12:56.702Z,59.80
2023-02-23T22:15:29.886Z,56.72
2023-02-23T22:17:57.336Z,61.70
2023-02-23T22:20:26.202Z,60.22
2023-02-23T22:22:53.684Z,58.55
2023-02-23T22:25:21.263Z,57.83
2023-02-23T22:27:48.721Z,61.55
2023-02-23T22:30:16.332Z,56.88
2023-02-23T22:32:44.453Z,61.28
2023-02-23T22:35:12.107Z,57.58
2023-02-23T22:37:40.127Z,57.25
2023-02-23T22:40:12.959Z,56.50
2023-02-23T22:42:43.277Z,58.90
2023-02-23T22:45:11.514Z,62.00
2023-02-23T22:47:39.157Z,66.25
2023-02-23T22:50:07.110Z,61.72
2023-02-23T22:52:34.788Z,65.95
2023-02-23T22:55:03.959Z,78.18
2023-02-23T22:57:31.321Z,63.72
2023-02-23T23:00:07.356Z,57.88
2023-02-23T23:02:36.387Z,62.65
2023-02-23T23:05:04.069Z,62.25
2023-02-23T23:07:31.817Z,97.68
2023-02-23T23:10:03.758Z,75.30
2023-02-23T23:12:34.401Z,94.63
2023-02-23T23:15:05.104Z,71.22
2023-02-23T23:17:32.918Z,60.00
2023-02-23T23:20:00.551Z,61.35
2023-02-23T23:22:28.142Z,58.30
2023-02-23T23:24:56.981Z,61.33
2023-02-23T23:27:24.940Z,60.10
2023-02-23T23:29:52.443Z,56.97
2023-02-23T23:32:27.485Z,62.35
2023-02-23T23:34:57.771Z,57.83
2023-02-23T23:37:29.169Z,56.22
2023-02-23T23:40:00.150Z,55.80
2023-02-23T23:42:27.696Z,60.75
2023-02-23T23:44:56.943Z,57.15
2023-02-23T23:47:24.719Z,57.23
2023-02-23T23:49:53.785Z,61.42
2023-02-23T23:52:21.213Z,58.78
2023-02-23T23:54:49.000Z,55.53
2023-02-23T23:57:17.397Z,59.10
2023-02-23T23:59:46.355Z,55.40
